createdAt,value
2023-03-30T00:00:42.875Z,3.58
2023-03-30T00:01:45.336Z,2.22
2023-03-30T00:02:50.626Z,6.50
2023-03-30T00:03:55.214Z,3.15
2023-03-30T00:05:03.402Z,3.28
2023-03-30T00:06:07.328Z,2.55
2023-03-30T00:07:11.088Z,3.75
2023-03-30T00:08:18.717Z,3.30
2023-03-30T00:09:22.713Z,1.50
2023-03-30T00:10:25.167Z,4.50
2023-03-30T00:11:27.546Z,3.67
2023-03-30T00:12:30.954Z,2.17
2023-03-30T00:13:34.516Z,3.22
2023-03-30T00:14:37.548Z,2.90
2023-03-30T00:15:41.040Z,4.18
2023-03-30T00:16:43.398Z,3.92
2023-03-30T00:17:46.271Z,5.05
2023-03-30T00:18:48.800Z,2.72
2023-03-30T00:19:51.234Z,3.38
2023-03-30T00:20:53.631Z,2.35
2023-03-30T00:21:56.357Z,2.10
2023-03-30T00:22:59.373Z,1.73
2023-03-30T00:24:01.692Z,3.78
2023-03-30T00:25:04.877Z,5.88
2023-03-30T00:26:08.081Z,4.95
2023-03-30T00:27:10.484Z,1.65
2023-03-30T00:28:12.830Z,3.20
2023-03-30T00:29:15.239Z,4.75
2023-03-30T00:30:18.581Z,3.30
2023-03-30T00:31:21.055Z,2.55
2023-03-30T00:32:24.634Z,1.98
2023-03-30T00:33:41.203Z,4.93
2023-03-30T00:34:47.663Z,2.88
2023-03-30T00:35:57.447Z,3.10
2023-03-30T00:36:59.827Z,4.88
2023-03-30T00:38:03.316Z,3.67
2023-03-30T00:39:06.684Z,6.07
2023-03-30T00:40:20.076Z,2.13
2023-03-30T00:41:27.984Z,2.92
2023-03-30T00:42:30.669Z,3.45
2023-03-30T00:43:33.686Z,4.88
2023-03-30T00:45:10.417Z,7.03
2023-03-30T00:46:12.872Z,5.28
2023-03-30T00:47:16.975Z,1.83
2023-03-30T00:48:31.652Z,2.92
2023-03-30T00:49:34.633Z,4.55
2023-03-30T00:50:48.648Z,3.08
2023-03-30T00:51:51.544Z,2.63
2023-03-30T00:52:56.638Z,2.85
2023-03-30T00:54:10.954Z,4.38
2023-03-30T00:55:13.703Z,6.32
2023-03-30T00:56:19.819Z,2.40
2023-03-30T00:57:24.044Z,3.45
2023-03-30T00:58:28.278Z,5.75
2023-03-30T00:59:30.842Z,4.60
2023-03-30T01:00:34.288Z,2.38
2023-03-30T01:01:39.496Z,3.45
2023-03-30T01:02:48.549Z,4.30
2023-03-30T01:03:52.524Z,1.98
2023-03-30T01:04:57.464Z,3.35
2023-03-30T01:06:02.887Z,3.65
2023-03-30T01:07:06.138Z,3.03
2023-03-30T01:08:09.943Z,2.75
2023-03-30T01:09:16.546Z,6.93
2023-03-30T01:10:19.658Z,2.67
2023-03-30T01:11:22.472Z,3.40
2023-03-30T01:12:25.040Z,4.40
2023-03-30T01:13:33.200Z,2.65
2023-03-30T01:14:36.477Z,4.97
2023-03-30T01:15:57.141Z,1.85
2023-03-30T01:17:19.345Z,9.07
2023-03-30T01:18:33.134Z,2.58
2023-03-30T01:19:53.373Z,5.95
2023-03-30T01:21:01.767Z,2.88
2023-03-30T01:22:30.100Z,2.67
2023-03-30T01:23:53.069Z,2.67
2023-03-30T01:25:28.593Z,2.83
2023-03-30T01:27:03.001Z,5.53
2023-03-30T01:28:36.334Z,2.75
2023-03-30T01:30:01.085Z,5.55
2023-03-30T01:31:48.387Z,4.57
2023-03-30T01:33:08.722Z,1.65
2023-03-30T01:34:48.030Z,5.47
2023-03-30T01:36:08.493Z,2.75
2023-03-30T01:37:18.038Z,2.17
2023-03-30T01:38:37.249Z,4.13
2023-03-30T01:40:02.184Z,5.10
2023-03-30T01:41:19.972Z,6.53
2023-03-30T01:42:32.014Z,3.38
2023-03-30T01:44:01.753Z,23.60
2023-03-30T01:45:33.658Z,19.83
2023-03-30T01:46:46.035Z,6.40
2023-03-30T01:48:13.600Z,6.88
2023-03-30T01:49:50.352Z,4.72
2023-03-30T01:50:56.366Z,6.43
2023-03-30T01:52:06.711Z,6.30
2023-03-30T01:53:32.852Z,6.47
2023-03-30T01:54:43.809Z,5.22
2023-03-30T01:55:52.934Z,6.82
2023-03-30T01:57:04.948Z,3.63
2023-03-30T01:58:16.878Z,2.80
2023-03-30T01:59:30.264Z,6.28
2023-03-30T02:00:36.248Z,7.05
2023-03-30T02:01:41.570Z,5.82
2023-03-30T02:02:54.365Z,2.88
2023-03-30T02:03:59.492Z,6.50
2023-03-30T02:05:05.341Z,3.30
2023-03-30T02:06:18.316Z,2.78
2023-03-30T02:07:28.272Z,3.88
2023-03-30T02:08:32.879Z,4.03
2023-03-30T02:09:38.081Z,4.35
2023-03-30T02:10:42.733Z,5.68
2023-03-30T02:11:51.030Z,9.00
2023-03-30T02:12:57.504Z,15.57
2023-03-30T02:14:01.609Z,27.50
2023-03-30T02:15:09.027Z,15.80
2023-03-30T02:16:22.780Z,19.50
2023-03-30T02:17:29.540Z,26.75
2023-03-30T02:18:33.190Z,26.67
2023-03-30T02:19:37.746Z,31.77
2023-03-30T02:20:40.264Z,20.70
2023-03-30T02:21:45.040Z,17.17
2023-03-30T02:22:49.330Z,12.32
2023-03-30T02:23:54.663Z,9.57
2023-03-30T02:24:58.411Z,11.15
2023-03-30T02:26:01.294Z,10.95
2023-03-30T02:27:04.326Z,6.15
2023-03-30T02:28:08.384Z,13.77
2023-03-30T02:29:11.675Z,9.75
2023-03-30T02:30:14.776Z,6.45
2023-03-30T02:31:17.352Z,6.18
2023-03-30T02:32:24.042Z,7.18
2023-03-30T02:33:42.538Z,6.03
2023-03-30T02:35:03.689Z,7.15
2023-03-30T02:36:44.028Z,9.65
2023-03-30T02:37:52.021Z,10.75
2023-03-30T02:39:10.494Z,5.57
2023-03-30T02:40:30.755Z,5.40
2023-03-30T02:41:55.955Z,7.47
2023-03-30T02:43:24.447Z,5.78
2023-03-30T02:44:58.682Z,7.85
2023-03-30T02:46:21.842Z,6.80
2023-03-30T02:47:38.990Z,3.50
2023-03-30T02:48:54.903Z,24.48
2023-03-30T02:50:02.798Z,44.55
2023-03-30T02:51:21.200Z,40.10
2023-03-30T02:52:57.191Z,24.73
2023-03-30T02:54:25.468Z,19.17
2023-03-30T02:56:00.702Z,12.40
2023-03-30T02:57:35.996Z,12.95
2023-03-30T02:59:35.960Z,33.17
2023-03-30T03:00:56.263Z,32.90
2023-03-30T03:02:20.211Z,26.88
2023-03-30T03:03:36.677Z,28.27
2023-03-30T03:04:43.377Z,28.20
2023-03-30T03:06:02.692Z,24.35
2023-03-30T03:07:08.169Z,22.42
2023-03-30T03:08:14.758Z,17.58
2023-03-30T03:09:21.620Z,20.67
2023-03-30T03:10:23.903Z,18.50
2023-03-30T03:11:27.048Z,20.25
2023-03-30T03:12:29.480Z,17.92
2023-03-30T03:13:32.042Z,13.52
2023-03-30T03:14:35.182Z,13.95
2023-03-30T03:15:38.010Z,13.60
2023-03-30T03:16:46.418Z,16.70
2023-03-30T03:17:51.455Z,13.88
2023-03-30T03:18:53.904Z,17.77
2023-03-30T03:19:56.470Z,19.20
2023-03-30T03:20:59.336Z,11.48
2023-03-30T03:22:01.812Z,12.00
2023-03-30T03:23:07.456Z,11.65
2023-03-30T03:24:22.021Z,9.48
2023-03-30T03:25:42.829Z,15.32
2023-03-30T03:26:46.509Z,10.38
2023-03-30T03:27:49.680Z,13.02
2023-03-30T03:28:56.737Z,14.93
2023-03-30T03:29:59.414Z,13.70
2023-03-30T03:31:02.649Z,10.63
2023-03-30T03:32:05.495Z,10.40
2023-03-30T03:33:15.081Z,39.40
2023-03-30T03:34:22.565Z,141.50
2023-03-30T03:35:33.044Z,142.97
2023-03-30T03:36:39.394Z,127.75
2023-03-30T03:37:41.725Z,78.55
2023-03-30T03:38:44.421Z,61.33
2023-03-30T03:39:46.911Z,54.47
2023-03-30T03:40:52.412Z,46.35
2023-03-30T03:41:54.948Z,45.53
2023-03-30T03:42:57.313Z,42.08
2023-03-30T03:43:59.804Z,39.90
2023-03-30T03:45:02.507Z,41.85
2023-03-30T03:46:05.654Z,38.38
2023-03-30T03:47:08.272Z,36.53
2023-03-30T03:48:11.033Z,42.03
2023-03-30T03:49:22.662Z,34.90
2023-03-30T03:50:25.284Z,35.30
2023-03-30T03:51:29.338Z,33.15
2023-03-30T03:52:31.746Z,30.90
2023-03-30T03:53:34.140Z,33.50
2023-03-30T03:54:40.377Z,30.20
2023-03-30T03:55:43.492Z,29.38
2023-03-30T03:56:45.886Z,29.70
2023-03-30T03:57:48.570Z,27.73
2023-03-30T03:58:53.609Z,31.77
2023-03-30T04:00:35.112Z,26.02
2023-03-30T04:01:37.821Z,29.75
2023-03-30T04:02:40.874Z,28.65
2023-03-30T04:03:43.310Z,29.85
2023-03-30T04:04:45.952Z,15.48
2023-03-30T04:05:48.413Z,16.85
2023-03-30T04:06:51.278Z,23.25
2023-03-30T04:08:19.253Z,26.25
2023-03-30T04:09:23.111Z,18.13
2023-03-30T04:11:52.510Z,26.38
2023-03-30T04:13:13.834Z,27.67
2023-03-30T04:14:22.140Z,22.40
2023-03-30T04:15:47.764Z,22.42
2023-03-30T04:17:02.659Z,20.98
2023-03-30T04:18:16.359Z,21.08
2023-03-30T04:19:41.936Z,21.38
2023-03-30T04:21:17.592Z,21.15
2023-03-30T04:22:36.433Z,22.65
2023-03-30T04:24:02.018Z,22.00
2023-03-30T04:25:34.251Z,25.63
2023-03-30T04:26:57.861Z,23.33
2023-03-30T04:28:25.242Z,21.90
2023-03-30T04:29:57.982Z,24.85
2023-03-30T04:31:13.785Z,21.38
2023-03-30T04:32:38.903Z,23.38
2023-03-30T04:47:26.413Z,47.03
2023-03-30T04:48:40.599Z,54.78
2023-03-30T04:50:07.750Z,56.45
2023-03-30T04:51:45.485Z,51.13
2023-03-30T04:53:08.141Z,49.92
2023-03-30T04:54:33.319Z,52.35
2023-03-30T04:55:55.073Z,51.15
2023-03-30T04:57:16.097Z,46.22
2023-03-30T04:58:40.120Z,47.72
2023-03-30T04:59:59.764Z,51.20
2023-03-30T05:01:33.817Z,49.15
2023-03-30T05:02:55.223Z,49.15
2023-03-30T05:04:19.794Z,45.08
2023-03-30T05:05:42.402Z,48.67
2023-03-30T05:08:07.386Z,55.45
2023-03-30T05:09:25.328Z,211.93
2023-03-30T05:11:01.231Z,133.45
2023-03-30T05:12:22.212Z,110.20
2023-03-30T05:13:35.426Z,99.07
2023-03-30T05:14:58.115Z,94.70
2023-03-30T05:16:33.115Z,85.53
2023-03-30T05:17:41.942Z,73.93
2023-03-30T05:19:04.628Z,73.63
2023-03-30T05:20:20.109Z,49.83
2023-03-30T05:22:09.929Z,57.35
2023-03-30T05:23:26.837Z,60.72
2023-03-30T05:24:54.530Z,65.22
2023-03-30T05:26:16.086Z,57.92
2023-03-30T05:27:27.091Z,62.88
2023-03-30T05:28:56.329Z,61.40
2023-03-30T05:30:37.941Z,58.28
2023-03-30T05:32:00.797Z,53.88
2023-03-30T05:33:22.287Z,48.13
2023-03-30T05:34:33.513Z,46.70
2023-03-30T05:35:57.100Z,48.40
2023-03-30T05:37:34.557Z,48.58
2023-03-30T05:38:56.410Z,57.08
2023-03-30T05:40:20.145Z,50.78
2023-03-30T05:41:46.114Z,50.60
2023-03-30T05:43:00.496Z,51.55
2023-03-30T05:44:22.462Z,46.20
2023-03-30T05:45:45.358Z,46.05
2023-03-30T05:47:06.468Z,48.03
2023-03-30T05:48:19.882Z,45.38
2023-03-30T05:49:40.733Z,42.53
2023-03-30T05:51:09.694Z,41.65
2023-03-30T05:52:30.769Z,50.53
2023-03-30T05:53:59.391Z,45.72
2023-03-30T05:55:20.970Z,46.10
2023-03-30T05:56:42.359Z,37.22
2023-03-30T05:57:56.732Z,42.17
2023-03-30T05:59:10.101Z,39.60
2023-03-30T06:00:29.314Z,39.88
2023-03-30T06:01:40.685Z,41.15
2023-03-30T06:02:43.332Z,40.30
2023-03-30T06:03:49.999Z,46.47
2023-03-30T06:04:52.618Z,37.42
2023-03-30T06:05:55.053Z,43.75
2023-03-30T06:06:57.339Z,39.53
2023-03-30T06:08:00.952Z,35.42
2023-03-30T06:09:04.463Z,42.20
2023-03-30T06:10:10.445Z,39.55
2023-03-30T06:11:14.127Z,43.83
2023-03-30T06:12:23.576Z,39.85
2023-03-30T06:13:26.382Z,45.70
2023-03-30T06:14:28.775Z,39.25
2023-03-30T06:15:49.783Z,42.85
2023-03-30T06:16:57.146Z,38.20
2023-03-30T06:18:03.785Z,38.22
2023-03-30T06:19:08.716Z,36.20
2023-03-30T06:20:12.494Z,41.90
2023-03-30T06:21:17.865Z,34.53
2023-03-30T06:22:41.962Z,37.10
2023-03-30T06:23:52.381Z,40.72
2023-03-30T06:24:57.355Z,41.58
2023-03-30T06:26:01.132Z,40.05
2023-03-30T06:27:08.229Z,34.22
2023-03-30T06:28:11.584Z,37.42
2023-03-30T06:29:14.077Z,38.88
2023-03-30T06:30:17.225Z,34.03
2023-03-30T06:31:24.406Z,34.90
2023-03-30T06:32:37.743Z,35.92
2023-03-30T06:33:54.189Z,32.53
2023-03-30T06:34:56.813Z,38.83
2023-03-30T06:36:01.338Z,34.70
2023-03-30T06:37:06.494Z,34.90
2023-03-30T06:38:09.453Z,35.13
2023-03-30T06:39:13.470Z,32.00
2023-03-30T06:40:16.028Z,36.35
2023-03-30T06:41:22.683Z,34.97
2023-03-30T06:42:28.812Z,38.10
2023-03-30T06:43:48.364Z,33.15
2023-03-30T06:44:53.638Z,34.47
2023-03-30T06:45:57.400Z,32.88
2023-03-30T06:47:03.799Z,35.78
2023-03-30T06:48:07.032Z,35.45
2023-03-30T06:49:13.255Z,38.20
2023-03-30T06:50:19.226Z,33.60
2023-03-30T06:51:38.929Z,34.38
2023-03-30T06:52:42.892Z,38.45
2023-03-30T06:53:45.447Z,35.10
2023-03-30T06:54:47.978Z,31.42
2023-03-30T06:55:55.772Z,32.50
2023-03-30T06:56:58.758Z,33.92
2023-03-30T06:58:01.525Z,35.45
2023-03-30T06:59:05.318Z,31.10
2023-03-30T07:00:14.660Z,37.95
2023-03-30T07:01:35.809Z,32.88
2023-03-30T07:02:54.674Z,31.63
2023-03-30T07:04:02.755Z,35.83
2023-03-30T07:05:40.456Z,33.50
2023-03-30T07:06:48.265Z,36.10
2023-03-30T07:07:54.663Z,33.47
2023-03-30T07:08:57.630Z,29.15
2023-03-30T07:10:02.551Z,30.75
2023-03-30T07:11:07.259Z,28.90
2023-03-30T07:12:12.673Z,32.85
2023-03-30T07:13:16.893Z,31.80
2023-03-30T07:14:21.533Z,31.88
2023-03-30T07:15:24.419Z,30.65
2023-03-30T07:16:27.231Z,30.00
2023-03-30T07:17:30.358Z,29.30
2023-03-30T07:18:32.805Z,32.25
2023-03-30T07:19:36.569Z,27.77
2023-03-30T07:20:39.378Z,34.00
2023-03-30T07:21:49.599Z,31.17
2023-03-30T07:22:54.046Z,34.40
2023-03-30T07:23:56.777Z,28.40
2023-03-30T07:25:05.739Z,30.58
2023-03-30T07:26:08.352Z,34.03
2023-03-30T07:27:17.630Z,30.55
2023-03-30T07:28:22.327Z,34.60
2023-03-30T07:29:24.859Z,31.15
2023-03-30T07:30:29.994Z,31.15
2023-03-30T07:31:38.323Z,31.70
2023-03-30T07:32:43.760Z,34.20
2023-03-30T07:33:46.807Z,30.20
2023-03-30T07:34:53.500Z,29.40
2023-03-30T07:35:57.011Z,31.13
2023-03-30T07:37:01.607Z,30.50
2023-03-30T07:38:07.370Z,29.85
2023-03-30T07:39:13.593Z,28.27
2023-03-30T07:40:19.852Z,31.35
2023-03-30T07:41:22.624Z,30.33
2023-03-30T07:42:29.009Z,33.10
2023-03-30T07:43:31.567Z,31.55
2023-03-30T07:44:34.267Z,31.30
2023-03-30T07:45:40.758Z,33.70
2023-03-30T07:46:45.736Z,27.90
2023-03-30T07:47:54.407Z,33.20
2023-03-30T07:48:57.473Z,30.35
2023-03-30T07:50:00.342Z,33.22
2023-03-30T07:51:09.073Z,28.73
2023-03-30T07:52:19.137Z,26.95
2023-03-30T07:53:27.960Z,31.35
2023-03-30T07:54:31.095Z,28.60
2023-03-30T07:55:54.748Z,28.98
2023-03-30T07:57:06.303Z,27.33
2023-03-30T07:58:08.834Z,28.17
2023-03-30T07:59:13.573Z,30.42
2023-03-30T08:00:18.914Z,27.60
2023-03-30T08:01:41.922Z,29.77
2023-03-30T08:02:51.564Z,31.20
2023-03-30T08:03:55.514Z,30.65
2023-03-30T08:05:00.133Z,28.65
2023-03-30T08:06:11.160Z,27.67
2023-03-30T08:07:16.687Z,29.90
2023-03-30T08:08:20.243Z,28.02
2023-03-30T08:09:22.714Z,33.08
2023-03-30T08:10:25.380Z,27.25
2023-03-30T08:11:28.100Z,27.77
2023-03-30T08:12:30.509Z,32.17
2023-03-30T08:13:33.359Z,26.38
2023-03-30T08:14:35.701Z,31.63
2023-03-30T08:15:38.150Z,27.50
2023-03-30T08:16:40.746Z,27.95
2023-03-30T08:17:43.451Z,31.20
2023-03-30T08:18:47.603Z,28.35
2023-03-30T08:19:50.088Z,29.00
2023-03-30T08:20:53.705Z,29.73
2023-03-30T08:22:01.719Z,26.75
2023-03-30T08:23:05.352Z,27.67
2023-03-30T08:24:08.670Z,22.83
2023-03-30T08:25:12.078Z,25.95
2023-03-30T08:26:14.387Z,25.83
2023-03-30T08:27:16.776Z,25.58
2023-03-30T08:28:21.479Z,23.80
2023-03-30T08:29:24.052Z,25.77
2023-03-30T08:30:27.236Z,29.25
2023-03-30T08:31:32.684Z,24.67
2023-03-30T08:32:35.390Z,26.98
2023-03-30T08:33:38.212Z,27.52
2023-03-30T08:34:40.646Z,25.60
2023-03-30T08:35:49.433Z,22.05
2023-03-30T08:36:51.838Z,24.65
2023-03-30T08:37:55.728Z,24.52
2023-03-30T08:38:58.201Z,27.88
2023-03-30T08:40:00.665Z,26.95
2023-03-30T08:41:39.269Z,23.55
2023-03-30T08:42:56.745Z,27.20
2023-03-30T08:44:01.808Z,20.05
2023-03-30T08:45:05.776Z,23.33
2023-03-30T08:46:16.029Z,25.77
2023-03-30T08:47:26.030Z,27.48
2023-03-30T08:48:33.507Z,28.05
2023-03-30T08:49:46.615Z,22.65
2023-03-30T08:50:59.346Z,22.23
2023-03-30T08:52:04.318Z,24.60
2023-03-30T08:53:08.071Z,19.83
2023-03-30T08:54:18.821Z,16.90
2023-03-30T08:55:30.227Z,12.32
2023-03-30T08:58:03.442Z,11.60
2023-03-30T08:59:22.830Z,9.70
2023-03-30T09:01:02.169Z,11.80
2023-03-30T09:02:16.503Z,12.93
2023-03-30T09:03:38.937Z,9.50
2023-03-30T09:05:08.550Z,10.18
2023-03-30T09:06:30.364Z,10.77
2023-03-30T09:07:46.619Z,11.13
2023-03-30T09:08:49.969Z,7.63
2023-03-30T09:09:55.369Z,7.38
2023-03-30T09:11:03.198Z,7.88
2023-03-30T09:12:16.799Z,9.77
2023-03-30T09:13:22.187Z,9.63
2023-03-30T09:14:33.726Z,5.47
2023-03-30T09:15:51.637Z,9.05
2023-03-30T09:17:15.266Z,8.48
2023-03-30T09:18:35.236Z,7.50
2023-03-30T09:19:49.139Z,7.70
2023-03-30T09:20:54.162Z,7.20
2023-03-30T09:22:00.560Z,7.18
2023-03-30T09:23:04.759Z,10.60
2023-03-30T09:24:15.920Z,11.18
2023-03-30T09:25:47.855Z,7.85
2023-03-30T09:28:32.758Z,8.10
2023-03-30T09:29:46.570Z,10.05
2023-03-30T09:30:54.566Z,9.35
2023-03-30T09:32:19.535Z,11.55
2023-03-30T09:33:32.348Z,7.57
2023-03-30T09:34:45.761Z,9.32
2023-03-30T09:36:16.027Z,9.75
2023-03-30T09:37:21.707Z,9.88
2023-03-30T09:38:24.166Z,7.95
2023-03-30T09:39:30.348Z,11.50
2023-03-30T09:41:07.275Z,13.82
2023-03-30T09:42:36.383Z,9.80
2023-03-30T09:43:52.995Z,7.53
2023-03-30T09:45:33.169Z,9.82
2023-03-30T09:46:36.998Z,8.60
2023-03-30T09:47:40.149Z,8.60
2023-03-30T09:48:48.022Z,7.90
2023-03-30T09:49:58.734Z,9.85
2023-03-30T09:51:01.989Z,7.20
2023-03-30T09:52:07.331Z,10.30
2023-03-30T09:53:29.986Z,11.32
2023-03-30T09:54:36.825Z,7.25
2023-03-30T09:55:39.259Z,7.78
2023-03-30T09:56:48.512Z,9.23
2023-03-30T09:57:52.237Z,9.20
2023-03-30T09:58:56.235Z,10.25
2023-03-30T10:00:00.791Z,7.85
2023-03-30T10:01:19.915Z,8.55
2023-03-30T10:02:26.521Z,8.15
2023-03-30T10:03:29.736Z,7.80
2023-03-30T10:04:32.420Z,7.85
2023-03-30T10:05:36.837Z,8.88
2023-03-30T10:06:49.365Z,6.50
2023-03-30T10:07:55.376Z,9.18
2023-03-30T10:08:58.340Z,8.45
2023-03-30T10:10:20.627Z,7.35
2023-03-30T10:12:00.299Z,7.80
2023-03-30T10:13:11.968Z,8.45
2023-03-30T10:14:31.560Z,6.65
2023-03-30T10:15:38.436Z,6.43
2023-03-30T10:16:45.378Z,7.53
2023-03-30T10:17:56.150Z,8.85
2023-03-30T10:19:05.479Z,9.20
2023-03-30T10:20:17.636Z,9.25
2023-03-30T10:21:27.435Z,10.35
2023-03-30T10:22:32.612Z,7.47
2023-03-30T10:23:42.707Z,8.05
2023-03-30T10:24:53.102Z,13.05
2023-03-30T10:26:04.320Z,10.50
2023-03-30T10:27:14.644Z,10.68
2023-03-30T10:28:33.489Z,12.90
2023-03-30T10:29:36.258Z,12.35
2023-03-30T10:30:39.497Z,12.48
2023-03-30T10:31:47.835Z,10.75
2023-03-30T10:32:53.192Z,12.13
2023-03-30T10:34:00.574Z,10.02
2023-03-30T10:35:10.868Z,10.02
2023-03-30T10:36:15.712Z,9.80
2023-03-30T10:37:32.686Z,8.23
2023-03-30T10:38:36.283Z,11.02
2023-03-30T10:39:41.970Z,5.70
2023-03-30T10:40:46.338Z,6.03
2023-03-30T10:41:50.392Z,4.63
2023-03-30T10:42:57.669Z,4.97
2023-03-30T10:44:17.983Z,5.07
2023-03-30T10:45:36.741Z,3.92
2023-03-30T10:46:39.225Z,4.53
2023-03-30T10:48:00.171Z,2.97
2023-03-30T10:49:33.129Z,3.92
2023-03-30T10:50:48.550Z,2.83
2023-03-30T10:52:10.782Z,7.72
2023-03-30T10:53:36.227Z,3.08
2023-03-30T10:54:52.614Z,3.78
2023-03-30T10:56:13.787Z,2.70
2023-03-30T10:57:19.403Z,3.05
2023-03-30T10:59:01.214Z,3.17
2023-03-30T11:00:25.560Z,4.47
2023-03-30T11:01:48.193Z,3.42
2023-03-30T11:03:08.461Z,3.38
2023-03-30T11:04:28.324Z,4.18
2023-03-30T11:05:37.452Z,7.40
2023-03-30T11:06:44.677Z,4.35
2023-03-30T11:07:59.097Z,3.58
2023-03-30T11:09:05.960Z,2.95
2023-03-30T11:10:30.487Z,5.65
2023-03-30T11:11:39.502Z,7.03
2023-03-30T11:12:46.478Z,4.40
2023-03-30T11:13:54.593Z,10.15
2023-03-30T11:15:04.564Z,3.13
2023-03-30T11:16:33.142Z,5.55
2023-03-30T11:17:59.284Z,4.30
2023-03-30T11:19:20.336Z,3.85
2023-03-30T11:20:34.576Z,7.68
2023-03-30T11:21:57.419Z,4.60
2023-03-30T11:23:07.585Z,10.77
2023-03-30T11:24:21.346Z,4.40
2023-03-30T11:25:27.105Z,5.00
2023-03-30T11:26:49.519Z,4.03
2023-03-30T11:28:04.062Z,3.55
2023-03-30T11:29:57.009Z,4.28
2023-03-30T11:31:08.970Z,3.20
2023-03-30T11:32:11.969Z,5.30
2023-03-30T11:33:42.122Z,8.73
2023-03-30T11:35:04.332Z,2.95
2023-03-30T11:36:18.858Z,4.97
2023-03-30T11:37:30.427Z,5.38
2023-03-30T11:38:48.837Z,5.13
2023-03-30T11:40:13.585Z,4.53
2023-03-30T11:41:26.420Z,3.60
2023-03-30T11:42:32.356Z,6.70
2023-03-30T11:43:34.752Z,7.15
2023-03-30T11:44:37.163Z,5.30
2023-03-30T11:46:10.085Z,6.55
2023-03-30T11:47:35.659Z,5.57
2023-03-30T11:48:48.141Z,3.28
2023-03-30T11:50:12.026Z,8.35
2023-03-30T11:51:33.199Z,7.93
2023-03-30T11:52:50.295Z,6.45
2023-03-30T11:54:23.322Z,4.80
2023-03-30T11:56:02.059Z,3.90
2023-03-30T11:57:32.490Z,6.93
2023-03-30T11:58:45.443Z,4.90
2023-03-30T12:00:22.682Z,10.05
2023-03-30T12:02:04.128Z,3.08
2023-03-30T12:03:38.866Z,2.85
2023-03-30T12:05:01.032Z,5.38
2023-03-30T12:06:25.816Z,3.25
2023-03-30T12:07:28.990Z,7.57
2023-03-30T12:09:09.485Z,3.45
2023-03-30T12:10:22.783Z,4.53
2023-03-30T12:11:41.946Z,3.50
2023-03-30T12:12:45.956Z,4.85
2023-03-30T12:13:52.108Z,3.05
2023-03-30T12:15:01.535Z,4.63
2023-03-30T12:16:12.057Z,4.65
2023-03-30T12:17:33.352Z,6.50
2023-03-30T12:19:16.201Z,4.10
2023-03-30T12:20:47.259Z,2.60
2023-03-30T12:22:06.305Z,7.82
2023-03-30T12:23:34.317Z,4.22
2023-03-30T12:25:02.677Z,8.07
2023-03-30T12:26:24.740Z,4.18
2023-03-30T12:27:29.088Z,3.58
2023-03-30T12:29:06.493Z,4.55
2023-03-30T12:30:24.431Z,4.15
2023-03-30T12:32:03.221Z,7.55
2023-03-30T12:33:18.349Z,3.10
2023-03-30T12:34:22.478Z,3.08
2023-03-30T12:35:49.739Z,7.40
2023-03-30T12:36:56.625Z,3.45
2023-03-30T12:38:00.302Z,5.43
2023-03-30T12:39:05.512Z,3.35
2023-03-30T12:40:22.204Z,3.42
2023-03-30T12:41:27.391Z,3.38
2023-03-30T12:42:39.463Z,7.68
2023-03-30T12:44:02.248Z,3.25
2023-03-30T12:45:11.106Z,6.10
2023-03-30T12:46:26.046Z,3.33
2023-03-30T12:47:50.957Z,6.82
2023-03-30T12:49:46.136Z,8.30
2023-03-30T12:51:03.284Z,5.32
2023-03-30T12:52:18.019Z,3.75
2023-03-30T12:53:36.211Z,4.88
2023-03-30T12:55:16.094Z,2.90
2023-03-30T12:56:43.846Z,3.30
2023-03-30T12:57:59.738Z,6.50
2023-03-30T12:59:33.755Z,5.93
2023-03-30T13:00:51.051Z,4.07
2023-03-30T13:02:26.259Z,4.30
2023-03-30T13:03:42.227Z,4.88
2023-03-30T13:04:48.920Z,5.13
2023-03-30T13:05:54.656Z,3.92
2023-03-30T13:07:07.568Z,2.17
2023-03-30T13:08:18.856Z,4.82
2023-03-30T13:09:25.429Z,2.35
2023-03-30T13:10:30.571Z,4.28
2023-03-30T13:12:03.082Z,2.92
2023-03-30T13:13:06.054Z,3.65
2023-03-30T13:14:34.875Z,3.63
2023-03-30T13:15:58.632Z,3.25
2023-03-30T13:17:01.224Z,3.20
2023-03-30T13:18:23.712Z,3.13
2023-03-30T13:19:32.710Z,3.75
2023-03-30T13:20:47.379Z,4.97
2023-03-30T13:21:58.862Z,2.08
2023-03-30T13:23:12.328Z,2.47
2023-03-30T13:24:36.453Z,1.02
2023-03-30T13:25:55.953Z,2.38
2023-03-30T13:27:16.829Z,2.17
2023-03-30T13:28:55.196Z,1.38
2023-03-30T13:30:08.630Z,2.72
2023-03-30T13:31:41.850Z,2.92
2023-03-30T13:33:12.116Z,4.22
2023-03-30T13:34:55.136Z,1.65
2023-03-30T13:36:17.817Z,2.13
2023-03-30T13:37:34.799Z,2.67
2023-03-30T13:38:47.106Z,4.55
2023-03-30T13:40:41.617Z,2.72
2023-03-30T13:42:12.880Z,2.17
2023-03-30T13:43:27.780Z,1.63
2023-03-30T13:44:46.631Z,1.85
2023-03-30T13:46:17.141Z,2.33
2023-03-30T13:47:45.069Z,4.55
2023-03-30T13:48:53.184Z,2.30
2023-03-30T13:50:03.486Z,2.25
2023-03-30T13:51:06.193Z,1.88
2023-03-30T13:52:16.102Z,1.55
2023-03-30T13:53:19.430Z,1.40
2023-03-30T13:54:27.175Z,2.30
2023-03-30T13:55:34.505Z,2.67
2023-03-30T13:56:41.343Z,2.13
2023-03-30T13:57:44.672Z,4.03
2023-03-30T13:58:57.405Z,2.33
2023-03-30T14:00:06.785Z,2.42
2023-03-30T14:01:15.976Z,3.35
2023-03-30T14:02:22.501Z,1.90
2023-03-30T14:03:36.070Z,2.92
2023-03-30T14:04:39.073Z,2.08
2023-03-30T14:05:42.190Z,2.10
2023-03-30T14:06:49.171Z,3.60
2023-03-30T14:07:56.555Z,1.95
2023-03-30T14:09:05.566Z,2.45
2023-03-30T14:10:18.284Z,2.60
2023-03-30T14:11:26.327Z,2.63
2023-03-30T14:12:28.689Z,2.25
2023-03-30T14:13:31.129Z,5.38
2023-03-30T14:14:35.541Z,2.10
2023-03-30T14:15:38.659Z,1.92
2023-03-30T14:16:42.676Z,3.13
2023-03-30T14:17:55.028Z,4.13
2023-03-30T14:19:17.580Z,2.70
2023-03-30T14:20:50.383Z,2.30
2023-03-30T14:22:21.767Z,3.33
2023-03-30T14:23:36.305Z,2.47
2023-03-30T14:24:38.663Z,3.15
2023-03-30T14:25:43.355Z,2.10
2023-03-30T14:26:50.222Z,1.98
2023-03-30T14:27:53.075Z,1.48
2023-03-30T14:29:05.275Z,1.65
2023-03-30T14:30:22.326Z,1.60
2023-03-30T14:31:27.339Z,2.38
2023-03-30T14:32:29.764Z,2.35
2023-03-30T14:33:35.314Z,2.20
2023-03-30T14:34:37.698Z,1.77
2023-03-30T14:35:44.177Z,1.20
2023-03-30T14:36:46.530Z,2.58
2023-03-30T14:37:52.439Z,2.63
2023-03-30T14:38:57.538Z,4.07
2023-03-30T14:40:00.322Z,2.88
2023-03-30T14:41:27.157Z,3.55
2023-03-30T14:42:33.944Z,3.17
2023-03-30T14:43:40.847Z,1.80
2023-03-30T14:44:45.577Z,5.65
2023-03-30T14:45:49.253Z,3.92
2023-03-30T14:46:55.446Z,2.67
2023-03-30T14:47:58.587Z,1.50
2023-03-30T14:49:01.451Z,2.05
2023-03-30T14:50:08.327Z,2.35
2023-03-30T14:51:23.971Z,4.22
2023-03-30T14:52:39.303Z,2.55
2023-03-30T14:53:42.247Z,6.32
2023-03-30T14:54:54.479Z,2.50
2023-03-30T14:56:08.977Z,4.03
2023-03-30T14:57:12.289Z,8.32
2023-03-30T14:58:16.429Z,13.63
2023-03-30T14:59:19.689Z,11.00
2023-03-30T15:00:24.857Z,10.95
2023-03-30T15:01:33.051Z,9.77
2023-03-30T15:02:37.497Z,9.23
2023-03-30T15:03:41.797Z,12.25
2023-03-30T15:04:44.350Z,6.20
2023-03-30T15:05:46.729Z,8.32
2023-03-30T15:07:16.313Z,4.47
2023-03-30T15:08:30.011Z,6.95
2023-03-30T15:09:38.521Z,5.00
2023-03-30T15:10:49.454Z,5.20
2023-03-30T15:11:58.841Z,8.85
2023-03-30T15:13:02.723Z,6.03
2023-03-30T15:14:13.353Z,6.22
2023-03-30T15:15:17.376Z,4.93
2023-03-30T15:16:23.671Z,4.28
2023-03-30T15:17:28.119Z,3.85
2023-03-30T15:18:32.978Z,4.82
2023-03-30T15:19:37.713Z,5.50
2023-03-30T15:20:40.033Z,4.65
2023-03-30T15:21:43.213Z,6.78
2023-03-30T15:22:48.620Z,5.63
2023-03-30T15:23:51.191Z,4.90
2023-03-30T15:24:55.806Z,4.22
2023-03-30T15:26:01.468Z,5.93
2023-03-30T15:27:07.706Z,4.20
2023-03-30T15:28:15.538Z,4.72
2023-03-30T15:29:19.669Z,6.07
2023-03-30T15:30:30.765Z,6.30
2023-03-30T15:31:33.286Z,5.22
2023-03-30T15:32:39.229Z,4.70
2023-03-30T15:33:49.012Z,7.05
2023-03-30T15:35:14.905Z,4.90
2023-03-30T15:36:23.747Z,3.63
2023-03-30T15:37:26.078Z,4.10
2023-03-30T15:38:31.450Z,11.52
2023-03-30T15:39:34.030Z,13.52
2023-03-30T15:40:37.747Z,21.08
2023-03-30T15:41:44.765Z,16.25
2023-03-30T15:42:47.572Z,16.30
2023-03-30T15:43:53.806Z,13.13
2023-03-30T15:45:25.793Z,13.30
2023-03-30T15:46:28.794Z,11.63
2023-03-30T15:47:34.179Z,11.00
2023-03-30T15:48:45.598Z,11.38
2023-03-30T15:49:51.277Z,14.68
2023-03-30T15:51:02.878Z,11.20
2023-03-30T15:52:16.740Z,10.63
2023-03-30T15:53:29.254Z,6.88
2023-03-30T15:54:44.922Z,7.82
2023-03-30T15:55:51.666Z,7.63
2023-03-30T15:57:25.178Z,7.97
2023-03-30T15:58:28.822Z,11.68
2023-03-30T15:59:57.406Z,8.23
2023-03-30T16:01:02.158Z,7.28
2023-03-30T16:02:16.087Z,8.75
2023-03-30T16:03:33.660Z,7.68
2023-03-30T16:04:36.015Z,6.47